Time;durP1;ratioP1;P1;durP2;ratioP2;P2;SDS_P1;SDS_P2;PMS_P1;PMS_P2;Temp;Humidity;BMP_temperature;BMP_pressure;BME280_temperature;BME280_humidity;BME280_pressure;Samples;Min_cycle;Max_cycle;Signal;HPM_P1;HPM_P2
2022/06/23 00:01:25;;;;;;;6.40;5.65;;;;;;;23.10;51.35;93094.94;5001317;28;20025;-91
2022/06/23 00:03:54;;;;;;;9.77;6.22;;;;;;;23.10;51.57;93097.72;5017859;28;20526;-92
2022/06/23 00:06:51;;;;;;;5.50;5.00;;;;;;;23.09;51.47;93110.75;5017448;28;20049;-91
2022/06/23 00:09:33;;;;;;;5.65;5.05;;;;;;;23.09;51.21;93112.78;5000695;28;20026;-91
2022/06/23 00:11:59;;;;;;;5.72;5.22;;;;;;;23.09;51.43;93105.25;5019015;28;20044;-91
2022/06/23 00:14:25;;;;;;;5.55;5.05;;;;;;;23.07;51.32;93107.81;5016912;28;20033;-91
2022/06/23 00:16:52;;;;;;;5.68;5.07;;;;;;;23.09;51.53;93105.25;5016492;28;20111;-91
2022/06/23 00:19:17;;;;;;;6.18;5.43;;;;;;;23.08;51.22;93105.78;5015411;28;20021;-91
2022/06/23 00:21:48;;;;;;;6.22;5.63;;;;;;;23.07;51.40;93107.81;5016872;28;20038;-91
2022/06/23 00:24:21;;;;;;;6.70;5.50;;;;;;;23.09;51.27;93116.28;4997963;28;20434;-91
2022/06/23 00:26:46;;;;;;;5.60;4.82;;;;;;;23.08;51.26;93125.81;5016192;28;20021;-91
2022/06/23 00:29:15;;;;;;;7.47;5.28;;;;;;;23.09;51.04;93132.09;5001181;28;20033;-91
2022/06/23 00:31:57;;;;;;;6.38;5.00;;;;;;;23.07;51.34;93131.88;4999687;28;20033;-91
2022/06/23 00:34:36;;;;;;;6.40;4.70;;;;;;;23.08;51.25;93136.13;5002753;28;20033;-91
2022/06/23 00:37:11;;;;;;;5.47;4.97;;;;;;;23.08;51.32;93138.88;5016179;28;20483;-91
2022/06/23 00:39:53;;;;;;;5.78;5.18;;;;;;;23.07;51.11;93140.16;4999864;28;20029;-91
2022/06/23 00:42:37;;;;;;;5.30;4.65;;;;;;;23.06;51.23;93147.69;5000185;28;20030;-91
2022/06/23 00:45:12;;;;;;;5.53;4.72;;;;;;;23.07;51.15;93142.91;5000550;28;20026;-91
2022/06/23 00:47:47;;;;;;;5.90;5.30;;;;;;;23.07;51.36;93153.94;5030618;28;20458;-91
2022/06/23 00:50:31;;;;;;;6.50;4.72;;;;;;;23.07;51.30;93154.69;5017410;28;20021;-91
2022/06/23 00:53:07;;;;;;;6.18;5.40;;;;;;;23.06;51.24;93149.72;4997868;28;20049;-91
2022/06/23 00:55:51;;;;;;;5.85;4.78;;;;;;;23.06;51.21;93153.22;4996864;28;20048;-91
2022/06/23 00:58:25;;;;;;;5.32;4.60;;;;;;;23.05;51.34;93146.22;5013264;28;20026;-92
2022/06/23 01:00:52;;;;;;;5.60;4.93;;;;;;;23.05;50.98;93139.97;4964488;28;20030;-91
2022/06/23 01:03:32;;;;;;;4.82;4.43;;;;;;;23.06;51.26;93155.97;4977699;28;20030;-92
2022/06/23 01:06:18;;;;;;;6.80;5.65;;;;;;;23.05;51.18;93159.28;4963548;28;20023;-91
2022/06/23 01:08:56;;;;;;;7.28;5.18;;;;;;;23.05;51.46;93164.78;4994724;28;20032;-91
2022/06/23 01:11:33;;;;;;;5.68;5.13;;;;;;;23.04;51.30;93155.78;4994936;28;20040;-91
2022/06/23 01:14:14;;;;;;;5.22;4.72;;;;;;;23.05;51.34;93165.53;4980619;28;20032;-91
2022/06/23 01:16:48;;;;;;;5.93;4.50;;;;;;;23.04;51.13;93168.81;4976278;28;20041;-92
2022/06/23 01:19:38;;;;;;;6.30;5.50;;;;;;;23.04;51.35;93171.59;4993603;28;20045;-91
2022/06/23 01:22:05;;;;;;;5.90;4.50;;;;;;;23.04;51.43;93168.81;4975744;28;20030;-92
2022/06/23 01:24:50;;;;;;;5.65;4.43;;;;;;;23.03;51.28;93173.59;4967666;28;20026;-91
2022/06/23 01:27:41;;;;;;;5.47;4.40;;;;;;;23.05;51.31;93164.78;4978253;28;20022;-92
2022/06/23 01:30:07;;;;;;;5.85;5.05;;;;;;;23.04;51.11;93171.59;4994607;28;20026;-91
2022/06/23 01:32:37;;;;;;;4.43;4.03;;;;;;;23.04;51.27;93175.06;4994650;28;20026;-91
2022/06/23 01:35:16;;;;;;;5.47;4.57;;;;;;;23.03;51.57;93164.59;4996159;28;20030;-92
2022/06/23 01:37:53;;;;;;;4.93;4.10;;;;;;;23.03;51.10;93167.34;4980057;28;20088;-91
2022/06/23 01:40:41;;;;;;;5.25;4.45;;;;;;;23.02;51.16;93168.63;4979756;28;20566;-91
2022/06/23 01:43:25;;;;;;;5.25;4.68;;;;;;;23.02;51.06;93155.59;4994401;28;20036;-91
2022/06/23 01:46:02;;;;;;;4.95;4.18;;;;;;;23.01;51.12;93156.88;4980026;28;20399;-91
2022/06/23 01:48:53;;;;;;;4.65;4.25;;;;;;;23.02;51.14;93155.59;4979254;28;20030;-91
2022/06/23 01:51:40;;;;;;;4.78;4.28;;;;;;;23.02;51.33;93157.59;4965615;28;20068;-91
2022/06/23 01:54:16;;;;;;;4.18;3.75;;;;;;;23.01;51.06;93153.38;4996414;28;20038;-91
2022/06/23 01:56:51;;;;;;;4.70;4.20;;;;;;;23.01;51.31;93161.66;4978271;28;20022;-91
2022/06/23 01:59:35;;;;;;;5.20;4.03;;;;;;;22.99;51.15;93151.16;4981708;28;20026;-92
2022/06/23 02:02:10;;;;;;;4.30;3.90;;;;;;;23.02;51.13;93149.34;4976054;28;20022;-91
2022/06/23 02:04:50;;;;;;;4.60;4.10;;;;;;;23.02;51.13;93166.59;4998056;28;20030;-91
2022/06/23 02:07:22;;;;;;;4.60;4.18;;;;;;;23.02;51.19;93160.34;4995953;28;20335;-91
2022/06/23 02:09:49;;;;;;;4.40;4.00;;;;;;;23.01;51.00;93156.13;4996644;28;20026;-92
2022/06/23 02:12:18;;;;;;;4.40;4.00;;;;;;;23.01;51.07;93165.13;4979195;28;20037;-91
2022/06/23 02:15:05;;;;;;;4.97;4.47;;;;;;;22.99;50.76;93167.69;4979593;28;20037;-92
2022/06/23 02:17:53;;;;;;;6.72;4.15;;;;;;;23.00;51.06;93173.94;4979567;28;20026;-92
2022/06/23 02:20:43;;;;;;;4.32;3.90;;;;;;;23.00;50.96;93177.44;4979168;28;20026;-91
2022/06/23 02:23:17;;;;;;;4.50;4.10;;;;;;;23.01;51.05;93159.63;4994968;28;20106;-92
2022/06/23 02:25:49;;;;;;;5.03;4.28;;;;;;;23.00;51.03;93179.47;4962947;28;20026;-91
2022/06/23 02:28:31;;;;;;;5.63;4.50;;;;;;;22.99;51.06;93172.47;4979309;28;20492;-91
2022/06/23 02:31:24;;;;;;;4.10;3.70;;;;;;;23.00;51.05;93179.47;4981137;28;20018;-91
2022/06/23 02:33:57;;;;;;;4.82;3.83;;;;;;;22.99;50.91;93178.00;4993453;28;20030;-91
2022/06/23 02:36:47;;;;;;;4.20;3.80;;;;;;;22.98;51.03;93180.00;4961132;28;20081;-91
2022/06/23 02:39:28;;;;;;;5.20;4.32;;;;;;;22.99;51.07;93175.22;4978097;28;20065;-91
2022/06/23 02:41:55;;;;;;;4.80;4.20;;;;;;;23.00;51.26;93176.72;4981072;28;20163;-91
2022/06/23 02:44:52;;;;;;;4.03;3.63;;;;;;;22.99;51.07;93180.75;4979843;28;20050;-91
2022/06/23 02:47:29;;;;;;;4.05;3.65;;;;;;;22.98;51.03;93182.75;4963268;28;20121;-91
2022/06/23 02:50:19;;;;;;;4.95;3.78;;;;;;;22.98;51.07;93188.28;4982210;28;20439;-91
2022/06/23 02:53:02;;;;;;;4.50;3.50;;;;;;;22.99;51.03;93189.03;4983593;28;20073;-91
2022/06/23 02:55:49;;;;;;;4.35;3.90;;;;;;;22.98;51.27;93188.28;4991939;28;20044;-92
2022/06/23 02:58:18;;;;;;;3.75;3.10;;;;;;;22.96;51.26;93185.31;5017063;28;20026;-92
2022/06/23 03:01:01;;;;;;;4.13;3.70;;;;;;;22.98;51.22;93187.53;5001332;28;20052;-92
2022/06/23 03:03:30;;;;;;;4.05;3.53;;;;;;;22.97;51.03;93189.56;5000849;28;20021;-91
2022/06/23 03:06:16;;;;;;;4.07;3.63;;;;;;;22.96;51.04;93190.84;5001286;28;20120;-91
2022/06/23 03:08:54;;;;;;;4.03;3.63;;;;;;;22.96;51.22;93193.59;5001150;28;20057;-91
2022/06/23 03:11:51;;;;;;;4.72;3.70;;;;;;;22.97;51.08;93188.81;4999152;28;20025;-92
2022/06/23 03:14:20;;;;;;;5.10;4.05;;;;;;;22.97;50.96;93199.84;5000749;28;20057;-92
2022/06/23 03:16:49;;;;;;;4.28;3.88;;;;;;;22.96;51.24;93207.38;4999366;28;20022;-92
2022/06/23 03:19:22;;;;;;;4.18;3.33;;;;;;;22.96;51.04;93199.13;5003097;28;20034;-91
2022/06/23 03:22:08;;;;;;;5.20;3.88;;;;;;;22.95;51.10;93205.91;5000655;28;20021;-91
2022/06/23 03:24:39;;;;;;;4.45;3.83;;;;;;;22.96;51.22;93204.63;5002470;28;20025;-91
2022/06/23 03:27:18;;;;;;;5.60;4.40;;;;;;;22.95;50.96;93208.66;5001719;28;20486;-91
2022/06/23 03:29:52;;;;;;;5.18;3.97;;;;;;;22.96;51.12;93217.66;5002097;28;20527;-91
2022/06/23 03:32:20;;;;;;;3.50;3.20;;;;;;;22.96;51.30;93220.44;5002121;28;20021;-91
2022/06/23 03:34:49;;;;;;;5.13;3.80;;;;;;;22.96;51.17;93223.94;5001783;28;20061;-91
2022/06/23 03:37:17;;;;;;;8.27;4.03;;;;;;;22.95;51.18;93230.72;5018378;28;20159;-91
2022/06/23 03:42:32;;;;;;;4.35;3.92;;;;;;;22.96;51.27;93234.22;5019706;28;20040;-90
2022/06/23 03:45:19;;;;;;;27.17;19.67;;;;;;;22.95;51.80;93235.53;5001106;28;20068;-91
2022/06/23 03:47:49;;;;;;;13.70;11.00;;;;;;;22.96;51.42;93250.75;5016425;28;20153;-92
2022/06/23 03:50:24;;;;;;;6.85;4.57;;;;;;;23.00;51.30;93251.88;5017295;28;20033;-92
2022/06/23 03:52:54;;;;;;;4.75;3.78;;;;;;;22.99;51.15;93249.66;5030295;28;20160;-93
2022/06/23 03:55:23;;;;;;;3.95;3.65;;;;;;;22.98;50.88;93253.72;5018030;28;20107;-95
2022/06/23 03:57:56;;;;;;;3.95;3.15;;;;;;;23.01;50.74;93258.88;5005205;28;20029;-92
2022/06/23 04:00:38;;;;;;;8.25;4.05;;;;;;;23.02;50.89;93254.09;5018960;28;20032;-92
2022/06/23 04:03:11;;;;;;;4.15;3.45;;;;;;;23.02;50.87;93260.34;5038505;28;20044;-93
2022/06/23 04:05:55;;;;;;;7.65;4.18;;;;;;;23.02;51.60;93260.34;5038443;28;20048;-93
2022/06/23 04:08:26;;;;;;;8.90;6.13;;;;;;;22.86;52.98;93256.78;5032950;28;20033;-93
2022/06/23 04:10:52;;;;;;;14.52;6.50;;;;;;;22.85;53.63;93258.06;5009385;28;20136;-92
2022/06/23 04:13:28;;;;;;;12.35;8.85;;;;;;;22.85;53.47;93254.56;4998500;28;20495;-93
2022/06/23 04:15:54;;;;;;;20.02;13.18;;;;;;;22.78;54.06;93256.00;5025081;28;20029;-92
2022/06/23 04:18:21;;;;;;;17.65;12.32;;;;;;;22.75;54.69;93256.31;4996601;28;20041;-91
2022/06/23 04:21:03;;;;;;;18.63;10.13;;;;;;;22.79;54.47;93251.97;5016124;28;20496;-92
2022/06/23 04:23:34;;;;;;;16.80;11.45;;;;;;;22.74;55.11;93250.06;5000354;28;20045;-92
2022/06/23 04:26:12;;;;;;;21.95;10.65;;;;;;;22.63;55.61;93255.91;5012486;28;20034;-91
2022/06/23 04:28:45;;;;;;;23.75;19.33;;;;;;;22.70;55.87;93262.75;4982047;28;20038;-92
2022/06/23 04:31:19;;;;;;;22.08;16.25;;;;;;;22.68;55.71;93263.28;5176443;23;20017;-95
2022/06/23 04:33:46;;;;;;;23.48;15.35;;;;;;;22.67;55.88;93263.81;5053647;28;20032;-93
2022/06/23 04:36:19;;;;;;;25.90;16.02;;;;;;;22.73;55.61;93267.91;5016834;28;20037;-92
2022/06/23 04:38:58;;;;;;;20.20;11.65;;;;;;;22.73;56.06;93259.66;4998574;28;20021;-95
2022/06/23 04:41:33;;;;;;;21.40;14.15;;;;;;;22.70;56.46;93263.47;5012470;28;20029;-91
2022/06/23 04:44:03;;;;;;;22.17;15.35;;;;;;;22.67;56.72;93272.09;5017879;28;20033;-93
2022/06/23 04:46:35;;;;;;;32.47;21.63;;;;;;;22.70;57.01;93273.75;4955533;28;20021;-88
2022/06/23 04:49:05;;;;;;;27.17;16.40;;;;;;;22.76;56.47;93280.59;5039167;28;20032;-96
2022/06/23 04:51:35;;;;;;;37.53;17.48;;;;;;;22.75;56.68;93289.38;5014315;28;20081;-87
2022/06/23 04:54:10;;;;;;;;;;;;;;;22.77;56.54;93290.34;5014877;28;20037;-92
2022/06/23 04:56:58;;;;;;;49.50;21.02;;;;;;;22.78;57.31;93294.59;5051333;28;19970;-93
2022/06/23 04:59:34;;;;;;;27.52;13.20;;;;;;;22.64;58.59;93295.94;5047795;28;20025;-90
2022/06/23 05:02:21;;;;;;;116.47;34.33;;;;;;;22.58;58.81;93298.84;5010954;28;20032;-90
2022/06/23 05:04:51;;;;;;;46.83;22.10;;;;;;;22.52;59.23;93305.78;5043699;28;20044;-91
2022/06/23 05:07:31;;;;;;;55.97;25.35;;;;;;;22.65;59.05;93311.22;5014874;28;20183;-92
2022/06/23 05:10:06;;;;;;;77.40;30.17;;;;;;;22.69;58.46;93305.34;5019342;28;20489;-96
2022/06/23 05:17:35;;;;;;;75.18;30.65;;;;;;;22.61;58.92;93321.09;3938960;23;20057;-94
2022/06/23 05:20:28;;;;;;;66.25;23.95;;;;;;;22.50;59.01;93324.88;5022278;28;20375;-94
2022/06/23 05:22:53;;;;;;;59.53;23.10;;;;;;;22.51;59.00;93331.88;5022640;28;20021;-92
2022/06/23 05:25:31;;;;;;;78.20;37.25;;;;;;;22.50;59.28;93327.66;5008216;28;20041;-92
2022/06/23 05:28:03;;;;;;;113.38;42.55;;;;;;;22.42;59.36;93322.06;5030701;28;20033;-95
2022/06/23 05:30:35;;;;;;;96.50;45.78;;;;;;;22.42;59.46;93324.09;5025595;28;20038;-91
2022/06/23 05:33:21;;;;;;;90.90;39.42;;;;;;;22.40;59.67;93332.13;5003092;28;20033;-90
2022/06/23 05:38:33;;;;;;;60.13;28.98;;;;;;;22.42;59.86;93327.56;5037867;28;20054;-92
2022/06/23 05:41:02;;;;;;;65.55;27.00;;;;;;;22.37;59.80;93333.97;5001860;28;20030;-91
2022/06/23 05:43:28;;;;;;;55.33;29.58;;;;;;;22.42;60.18;93330.31;4962852;28;20042;-92
2022/06/23 05:45:57;;;;;;;57.65;29.20;;;;;;;22.34;60.35;93337.78;5007565;28;20026;-93
2022/06/23 05:48:41;;;;;;;89.28;53.60;;;;;;;22.36;60.39;93335.22;5016851;28;20021;-94
2022/06/23 05:51:10;;;;;;;103.95;52.28;;;;;;;22.38;60.51;93335.44;4964690;28;20019;-91
2022/06/23 05:54:01;;;;;;;79.07;44.50;;;;;;;22.39;60.48;93334.16;5023207;28;20132;-95
2022/06/23 05:56:30;;;;;;;;;;;;;;;22.46;60.16;93336.25;5002248;28;20012;-95
2022/06/23 05:59:13;;;;;;;143.57;89.40;;;;;;;22.44;60.04;93325.03;4998827;28;19905;-95
2022/06/23 06:01:57;;;;;;;111.47;69.07;;;;;;;22.39;60.56;93342.41;4999973;28;20026;-94
2022/06/23 06:04:25;;;;;;;96.35;56.53;;;;;;;22.40;61.09;93329.38;4996434;28;20038;-96
2022/06/23 06:06:54;;;;;;;110.53;70.10;;;;;;;22.37;61.07;93338.72;5003420;28;20026;-96
2022/06/23 06:09:39;;;;;;;89.03;55.65;;;;;;;22.52;60.70;93331.31;4996388;28;20045;-91
2022/06/23 06:12:14;;;;;;;71.78;46.83;;;;;;;22.42;61.16;93337.84;4980152;28;20086;-91
2022/06/23 06:14:44;;;;;;;70.38;42.92;;;;;;;22.49;61.20;93337.19;4988643;28;20112;-93
2022/06/23 06:17:17;;;;;;;59.53;39.90;;;;;;;22.49;60.59;93342.69;5001310;28;20049;-90
2022/06/23 06:19:43;;;;;;;49.58;30.88;;;;;;;22.46;60.80;93352.03;5037765;23;20370;-91
2022/06/23 06:22:25;;;;;;;46.45;29.88;;;;;;;22.50;60.84;93346.94;5021554;28;20018;-91
2022/06/23 06:24:53;;;;;;;46.15;30.67;;;;;;;22.40;60.94;93335.63;5009782;28;20049;-91
2022/06/23 06:27:25;;;;;;;34.67;24.55;;;;;;;22.46;60.87;93352.78;5044873;23;20061;-91
2022/06/23 06:29:50;;;;;;;61.53;41.72;;;;;;;22.39;61.12;93349.94;5036922;28;20033;-89
2022/06/23 06:32:21;;;;;;;84.47;51.97;;;;;;;22.38;61.69;93351.97;4994000;28;20702;-91
2022/06/23 06:34:52;;;;;;;76.32;45.20;;;;;;;22.37;61.72;93347.72;5023862;28;20025;-91
2022/06/23 06:37:29;;;;;;;57.95;32.15;;;;;;;22.35;61.94;93353.03;5025856;28;20124;-92
2022/06/23 06:39:58;;;;;;;57.50;34.45;;;;;;;22.44;61.48;93351.81;5023629;28;20026;-93
2022/06/23 06:42:49;;;;;;;38.40;24.85;;;;;;;22.38;61.46;93351.22;5023047;28;20485;-92
2022/06/23 06:45:17;;;;;;;37.45;24.80;;;;;;;22.42;61.60;93348.88;5036981;23;20057;-95
2022/06/23 06:47:42;;;;;;;47.83;34.10;;;;;;;22.41;61.40;93353.63;5038933;23;20052;-95
2022/06/23 06:50:39;;;;;;;55.80;39.80;;;;;;;22.45;61.29;93350.56;5037388;28;20052;-94
2022/06/23 06:53:07;;;;;;;44.25;30.40;;;;;;;22.43;61.36;93351.09;5057078;28;20098;-92
2022/06/23 06:55:41;;;;;;;45.03;31.10;;;;;;;22.38;61.45;93351.97;5057034;28;20049;-94
2022/06/23 06:58:16;;;;;;;34.88;26.95;;;;;;;22.41;61.50;93350.16;5016954;28;20038;-92
2022/06/23 07:00:52;;;;;;;43.50;26.38;;;;;;;22.41;61.92;93352.91;4979744;28;20065;-91
2022/06/23 07:03:19;;;;;;;42.30;25.83;;;;;;;22.47;61.38;93350.75;4975980;28;20127;-93
2022/06/23 07:05:50;;;;;;;44.47;22.58;;;;;;;22.48;61.37;93352.97;4961485;28;20548;-92
2022/06/23 07:08:25;;;;;;;49.40;21.98;;;;;;;22.50;61.21;93355.19;5005278;28;20037;-91
2022/06/23 07:10:56;;;;;;;40.72;21.75;;;;;;;22.49;61.48;93348.19;4981393;28;20033;-92
2022/06/23 07:13:30;;;;;;;55.67;23.25;;;;;;;22.47;61.59;93348.75;4971821;28;20484;-91
2022/06/23 07:16:19;;;;;;;53.17;27.65;;;;;;;22.56;61.55;93356.50;4980704;28;20128;-92
2022/06/23 07:18:54;;;;;;;44.50;26.20;;;;;;;22.56;61.58;93351.00;4967838;28;20053;-92
2022/06/23 07:21:24;;;;;;;53.95;26.08;;;;;;;22.57;61.26;93357.97;4995840;28;20030;-91
2022/06/23 07:23:54;;;;;;;54.15;26.23;;;;;;;22.57;61.46;93355.22;4964132;28;20129;-92
2022/06/23 07:26:32;;;;;;;57.72;29.83;;;;;;;22.58;61.28;93356.72;4979143;28;20034;-91
2022/06/23 07:29:27;;;;;;;94.30;50.20;;;;;;;22.63;60.88;93357.09;5009677;28;20128;-92
2022/06/23 07:32:24;;;;;;;70.82;41.08;;;;;;;22.63;60.93;93365.38;5052076;28;20468;-95
2022/06/23 07:34:53;;;;;;;56.58;34.90;;;;;;;22.64;61.08;93358.59;5046173;28;20051;-94
2022/06/23 07:37:33;;;;;;;71.55;44.13;;;;;;;22.72;60.72;93359.41;5041632;28;20619;-94
2022/06/23 07:40:04;;;;;;;70.13;43.50;;;;;;;22.75;60.90;93366.56;5059917;28;20052;-92
2022/06/23 07:42:38;;;;;;;;;;;;;;;22.74;60.59;93368.56;5061655;28;20029;-92
2022/06/23 07:45:12;;;;;;;70.07;42.67;;;;;;;22.74;60.81;93354.06;5056099;28;19913;-91
2022/06/23 07:47:37;;;;;;;66.13;45.38;;;;;;;22.75;60.87;93358.28;5040949;28;20041;-90
2022/06/23 07:50:04;;;;;;;68.68;39.85;;;;;;;22.75;60.50;93358.28;5040507;28;20029;-92
2022/06/23 07:52:30;;;;;;;68.40;39.15;;;;;;;22.79;60.60;93359.47;5036625;28;20060;-93
2022/06/23 07:55:00;;;;;;;67.93;39.20;;;;;;;22.80;60.64;93355.41;5004000;28;20029;-91
2022/06/23 07:57:26;;;;;;;115.80;62.25;;;;;;;22.82;60.50;93357.63;5033566;28;20447;-93
2022/06/23 07:59:58;;;;;;;63.22;38.65;;;;;;;22.82;60.23;93365.91;5025144;28;20041;-92
2022/06/23 08:02:49;;;;;;;74.57;40.53;;;;;;;22.82;60.10;93368.66;5034230;28;20484;-93
2022/06/23 08:05:20;;;;;;;140.85;49.53;;;;;;;22.85;60.28;93368.31;5015059;28;20033;-92
2022/06/23 08:07:45;;;;;;;107.88;44.25;;;;;;;22.84;59.93;93371.63;5033378;28;20499;-93
2022/06/23 08:10:17;;;;;;;126.40;56.35;;;;;;;22.88;59.77;93375.50;5051195;28;20033;-90
2022/06/23 08:12:55;;;;;;;99.47;56.42;;;;;;;22.90;59.73;93372.97;4971430;28;20452;-91
2022/06/23 08:18:37;;;;;;;134.50;77.25;;;;;;;22.95;59.47;93360.28;4975791;28;21028;-94
2022/06/23 08:21:10;;;;;;;138.75;78.78;;;;;;;23.03;59.26;93365.84;4977684;28;20034;-93
2022/06/23 08:24:23;;;;;;;156.32;81.25;;;;;;;23.02;59.32;93361.63;4961177;28;20027;-96
2022/06/23 08:37:25;;;;;;;107.88;58.58;;;;;;;23.06;59.03;93368.28;5017474;28;20054;-95
2022/06/23 08:39:54;;;;;;;121.80;60.88;;;;;;;23.10;59.04;93368.66;4986489;28;20055;-95
2022/06/23 08:42:28;;;;;;;112.45;56.00;;;;;;;23.05;59.06;93364.03;5009341;23;20057;-93
2022/06/23 08:45:20;;;;;;;95.65;52.92;;;;;;;23.06;59.06;93357.25;5011092;28;20037;-95
2022/06/23 08:47:58;;;;;;;113.32;59.80;;;;;;;23.07;59.22;93367.00;5030237;28;20080;-95
2022/06/23 08:50:43;;;;;;;132.38;62.28;;;;;;;23.10;59.14;93370.69;5016263;28;20562;-93
2022/06/23 08:53:42;;;;;;;108.78;56.38;;;;;;;23.08;59.09;93364.97;5016072;28;20034;-94
2022/06/23 08:56:14;;;;;;;112.05;53.40;;;;;;;23.10;59.09;93368.66;5016929;28;20101;-91
2022/06/23 08:58:54;;;;;;;100.65;53.80;;;;;;;23.09;58.97;93371.97;4984412;28;20049;-92
2022/06/23 09:01:44;;;;;;;;;;;;;;;23.08;58.84;93368.47;5009580;28;20009;-93
2022/06/23 09:07:00;;;;;;;73.80;41.58;;;;;;;23.08;58.90;93373.25;4999280;28;20115;-92
2022/06/23 09:09:48;;;;;;;82.03;39.65;;;;;;;23.11;59.22;93359.13;4993549;28;20026;-92
2022/06/23 09:12:42;;;;;;;75.63;40.83;;;;;;;23.10;58.98;93365.91;4961219;28;20022;-92
2022/06/23 09:15:28;;;;;;;63.05;40.95;;;;;;;23.10;59.11;93363.16;4975603;28;20030;-93
2022/06/23 09:18:03;;;;;;;66.07;40.42;;;;;;;23.10;59.10;93365.16;4960645;28;20027;-91
2022/06/23 09:20:50;;;;;;;68.72;41.67;;;;;;;23.12;58.88;93359.84;4994894;28;20029;-91
2022/06/23 09:23:41;;;;;;;72.82;40.72;;;;;;;23.13;58.81;93372.38;4996271;28;20391;-92
2022/06/23 09:26:22;;;;;;;62.50;38.45;;;;;;;23.13;58.70;93372.38;4994789;28;20061;-91
2022/06/23 09:28:55;;;;;;;59.30;32.88;;;;;;;23.09;58.74;93369.94;4978960;28;20029;-92
2022/06/23 09:31:42;;;;;;;57.65;33.72;;;;;;;23.09;58.63;93366.44;4994545;28;20033;-90
2022/06/23 09:34:15;;;;;;;69.75;39.50;;;;;;;23.07;58.46;93361.47;4982734;28;20033;-91
2022/06/23 09:36:55;;;;;;;94.03;47.53;;;;;;;23.10;58.51;93367.94;4988925;28;20056;-88
2022/06/23 09:39:21;;;;;;;73.45;40.72;;;;;;;23.11;58.38;93377.69;4960088;28;20033;-91
2022/06/23 09:42:05;;;;;;;60.42;33.70;;;;;;;23.07;58.80;93375.25;4990953;28;20030;-91
2022/06/23 09:44:44;;;;;;;92.43;47.60;;;;;;;23.09;58.98;93367.19;4958151;28;20031;-91
2022/06/23 09:47:24;;;;;;;100.60;54.40;;;;;;;23.07;59.06;93367.00;4988053;28;20054;-90
2022/06/23 09:49:52;;;;;;;;;;;;;;;23.08;58.84;93359.47;4992880;28;20062;-91
2022/06/23 09:52:23;;;;;;;107.00;64.95;;;;;;;23.08;59.12;93367.72;4963558;28;20372;-91
2022/06/23 09:55:17;;;;;;;123.18;67.45;;;;;;;23.06;58.84;93354.50;4984611;28;20040;-91
2022/06/23 09:57:55;;;;;;;120.93;72.30;;;;;;;23.08;58.91;93354.69;4960082;28;20105;-91
2022/06/23 10:00:25;;;;;;;132.50;71.85;;;;;;;23.12;58.74;93363.34;4960842;28;20030;-90
2022/06/23 10:02:58;;;;;;;136.97;75.07;;;;;;;23.06;58.73;93371.03;4961135;28;20046;-91
2022/06/23 10:05:57;;;;;;;132.90;75.82;;;;;;;23.06;59.05;93356.50;4968933;28;20067;-91
2022/06/23 10:09:18;;;;;;;121.30;72.30;;;;;;;23.08;58.92;93356.69;4951763;28;20067;-89
2022/06/23 10:11:59;;;;;;;126.97;69.10;;;;;;;23.09;58.57;93349.91;4952666;29;20034;-89
2022/06/23 10:14:30;;;;;;;;;;;;;;;23.08;58.68;93359.47;4956307;29;20797;-89
2022/06/23 10:17:19;;;;;;;124.40;92.70;;;;;;;23.06;59.05;93354.50;4939595;29;19927;-89
2022/06/23 10:19:53;;;;;;;139.05;108.18;;;;;;;23.05;59.19;93352.28;4938403;29;20027;-89
2022/06/23 10:22:47;;;;;;;93.90;70.97;;;;;;;23.06;58.88;93360.00;4952951;29;20036;-89
2022/06/23 10:25:15;;;;;;;218.10;175.95;;;;;;;23.09;58.63;93352.66;4951839;29;20035;-89
2022/06/23 10:28:06;;;;;;;97.45;73.80;;;;;;;23.10;58.79;93357.63;4940787;29;20038;-89
2022/06/23 10:30:50;;;;;;;87.90;60.88;;;;;;;23.10;58.74;93356.91;4922347;29;20363;-90
2022/06/23 10:33:21;;;;;;;70.45;45.85;;;;;;;23.11;58.44;93347.34;4953118;29;20042;-90
2022/06/23 10:36:00;;;;;;;102.60;77.47;;;;;;;23.09;58.65;93347.16;4948429;29;20039;-90
2022/06/23 10:38:30;;;;;;;55.63;43.08;;;;;;;23.13;58.58;93353.06;4934747;29;20024;-90
2022/06/23 10:41:07;;;;;;;50.63;40.03;;;;;;;23.12;58.52;93338.53;4941762;29;20281;-90
2022/06/23 10:44:10;;;;;;;58.10;43.05;;;;;;;23.13;58.55;93342.03;4979799;28;20031;-91
2022/06/23 10:46:49;;;;;;;52.60;39.45;;;;;;;23.14;58.64;93341.50;4967049;28;20106;-93
2022/06/23 10:49:25;;;;;;;56.08;38.88;;;;;;;23.11;58.57;93339.81;4961731;28;20094;-91
2022/06/23 10:52:10;;;;;;;48.08;33.67;;;;;;;23.17;58.81;93343.13;4955385;29;20031;-92
2022/06/23 10:55:10;;;;;;;44.88;33.95;;;;;;;23.13;58.93;93331.00;4959983;29;20023;-91
2022/06/23 10:57:53;;;;;;;49.85;33.83;;;;;;;23.17;58.98;93334.84;4940990;29;20082;-92
2022/06/23 11:00:30;;;;;;;50.90;32.17;;;;;;;23.21;58.46;93338.00;4961642;29;20039;-93
2022/06/23 11:03:11;;;;;;;47.85;31.80;;;;;;;23.23;58.73;93340.97;4943610;28;20031;-92
2022/06/23 11:06:10;;;;;;;48.15;34.83;;;;;;;23.23;58.62;93329.94;4986989;28;20051;-92
2022/06/23 11:08:49;;;;;;;52.42;36.38;;;;;;;23.27;58.43;93320.56;4978966;28;20122;-92
2022/06/23 11:11:33;;;;;;;78.00;53.50;;;;;;;23.25;58.43;93323.88;4965867;28;20035;-92
2022/06/23 11:14:33;;;;;;;92.28;56.33;;;;;;;23.29;58.45;93312.50;4969725;28;20034;-92
2022/06/23 11:17:14;;;;;;;111.72;74.55;;;;;;;23.32;58.14;93322.44;4969015;28;20122;-91
2022/06/23 11:20:03;;;;;;;146.45;94.47;;;;;;;23.36;58.15;93326.31;4952950;29;20074;-92
2022/06/23 11:22:39;;;;;;;122.32;79.85;;;;;;;23.35;58.05;93319.34;4935795;29;20182;-91
2022/06/23 11:25:07;;;;;;;129.63;80.72;;;;;;;23.38;58.04;93320.28;4941455;29;20023;-90
2022/06/23 11:33:48;;;;;;;117.95;69.50;;;;;;;23.43;57.87;93319.34;5351247;23;20060;-91
2022/06/23 11:36:29;;;;;;;122.90;67.28;;;;;;;23.43;57.73;93314.56;5035094;28;20022;-93
2022/06/23 11:39:35;;;;;;;103.80;62.17;;;;;;;23.44;57.85;93305.00;5023070;28;20034;-90
2022/06/23 11:42:06;;;;;;;106.80;60.30;;;;;;;23.47;57.52;93308.69;5014018;28;20026;-93
2022/06/23 11:45:08;;;;;;;114.47;65.68;;;;;;;23.46;57.79;93305.19;4982446;28;20022;-93
2022/06/23 11:48:12;;;;;;;117.93;69.30;;;;;;;23.44;57.77;93296.00;5021028;28;20022;-91
2022/06/23 11:53:18;;;;;;;111.55;67.15;;;;;;;23.45;57.58;93294.72;5068134;23;20136;-88
2022/06/23 11:55:48;;;;;;;;;;;;;;;23.41;57.57;93305.34;5043103;28;20442;-90
2022/06/23 11:58:43;;;;;;;116.20;76.07;;;;;;;23.41;57.32;93300.56;5084193;28;19897;-90
2022/06/23 12:01:22;;;;;;;124.53;66.90;;;;;;;23.46;57.23;93294.16;5029519;28;20033;-90
2022/06/23 12:03:51;;;;;;;115.80;65.32;;;;;;;23.49;57.34;93295.09;5064466;28;20017;-89
2022/06/23 12:06:50;;;;;;;123.47;73.07;;;;;;;23.48;57.15;93307.41;5038197;28;20092;-89
2022/06/23 12:09:29;;;;;;;110.53;72.03;;;;;;;23.51;57.26;93309.81;5033421;28;20036;-90
2022/06/23 12:11:57;;;;;;;107.70;71.63;;;;;;;23.51;57.13;93298.03;5019837;28;20021;-87
2022/06/23 12:14:23;;;;;;;115.18;71.47;;;;;;;23.50;57.35;93305.59;5027543;28;20033;-91
2022/06/23 12:16:55;;;;;;;106.82;68.85;;;;;;;23.48;57.58;93296.38;5021113;28;20053;-94
2022/06/23 12:19:22;;;;;;;106.15;67.68;;;;;;;23.51;57.40;93293.28;5043698;28;20041;-92
2022/06/23 12:22:02;;;;;;;98.03;65.78;;;;;;;23.45;57.58;93295.44;5022563;23;20050;-90
2022/06/23 12:24:38;;;;;;;116.63;65.22;;;;;;;23.46;57.42;93294.16;5006316;28;20057;-92
2022/06/23 12:27:04;;;;;;;121.05;59.63;;;;;;;23.47;57.50;93301.16;4970163;28;20034;-92
2022/06/23 12:29:36;;;;;;;121.05;62.10;;;;;;;23.50;57.43;93289.03;4976541;28;20640;-93
2022/06/23 12:32:21;;;;;;;119.00;64.82;;;;;;;23.53;57.29;93290.72;4977658;28;20019;-93
2022/06/23 12:35:10;;;;;;;112.50;58.92;;;;;;;23.48;57.51;93286.06;4983947;28;20030;-94
2022/06/23 12:38:11;;;;;;;109.90;61.47;;;;;;;23.49;57.43;93284.78;4986675;28;20042;-95
2022/06/23 12:41:00;;;;;;;235.70;188.82;;;;;;;23.49;57.78;93284.06;4965497;28;20027;-95
2022/06/23 12:43:35;;;;;;;116.97;71.38;;;;;;;23.53;57.59;93301.03;4995284;28;20038;-89
2022/06/23 12:46:24;;;;;;;110.50;63.38;;;;;;;23.55;57.35;93296.44;4982291;28;20050;-91